sensor_id;sensor_type;location;lat;lon;timestamp;temperature;humidity
3075;DHT22;1548;51.716;8.748;2022-08-25T00:00:00;22.30;64.10
3075;DHT22;1548;51.716;8.748;2022-08-25T00:02:26;22.30;64.10
3075;DHT22;1548;51.716;8.748;2022-08-25T00:04:51;22.20;64.40
3075;DHT22;1548;51.716;8.748;2022-08-25T00:07:17;22.20;64.50
3075;DHT22;1548;51.716;8.748;2022-08-25T00:09:42;22.20;64.60
3075;DHT22;1548;51.716;8.748;2022-08-25T00:12:09;22.10;64.60
3075;DHT22;1548;51.716;8.748;2022-08-25T00:14:36;22.10;64.80
3075;DHT22;1548;51.716;8.748;2022-08-25T00:17:03;22.10;64.90
3075;DHT22;1548;51.716;8.748;2022-08-25T00:19:31;22.00;65.10
3075;DHT22;1548;51.716;8.748;2022-08-25T00:21:57;22.10;65.10
3075;DHT22;1548;51.716;8.748;2022-08-25T00:24:24;22.00;65.20
3075;DHT22;1548;51.716;8.748;2022-08-25T00:26:52;22.00;65.40
3075;DHT22;1548;51.716;8.748;2022-08-25T00:29:20;22.00;65.60
3075;DHT22;1548;51.716;8.748;2022-08-25T00:31:46;22.00;65.60
3075;DHT22;1548;51.716;8.748;2022-08-25T00:34:16;21.90;65.80
3075;DHT22;1548;51.716;8.748;2022-08-25T00:36:43;21.80;66.10
3075;DHT22;1548;51.716;8.748;2022-08-25T00:39:09;21.80;66.00
3075;DHT22;1548;51.716;8.748;2022-08-25T00:41:36;21.80;66.40
3075;DHT22;1548;51.716;8.748;2022-08-25T00:44:05;21.80;66.20
3075;DHT22;1548;51.716;8.748;2022-08-25T00:46:52;21.70;66.60
3075;DHT22;1548;51.716;8.748;2022-08-25T00:49:38;21.70;66.70
3075;DHT22;1548;51.716;8.748;2022-08-25T00:52:11;21.60;66.70
3075;DHT22;1548;51.716;8.748;2022-08-25T00:54:48;21.70;66.70
3075;DHT22;1548;51.716;8.748;2022-08-25T00:57:18;21.60;66.90
3075;DHT22;1548;51.716;8.748;2022-08-25T00:59:45;21.50;67.10
3075;DHT22;1548;51.716;8.748;2022-08-25T01:02:12;21.50;67.30
3075;DHT22;1548;51.716;8.748;2022-08-25T01:04:38;21.50;67.40
3075;DHT22;1548;51.716;8.748;2022-08-25T01:07:05;21.40;67.50
3075;DHT22;1548;51.716;8.748;2022-08-25T01:09:32;21.40;67.60
3075;DHT22;1548;51.716;8.748;2022-08-25T01:11:59;21.40;67.50
3075;DHT22;1548;51.716;8.748;2022-08-25T01:14:26;21.40;67.60
3075;DHT22;1548;51.716;8.748;2022-08-25T01:16:52;21.40;67.70
3075;DHT22;1548;51.716;8.748;2022-08-25T01:19:19;21.30;67.70
3075;DHT22;1548;51.716;8.748;2022-08-25T01:21:48;21.30;67.80
3075;DHT22;1548;51.716;8.748;2022-08-25T01:26:59;21.30;68.00
3075;DHT22;1548;51.716;8.748;2022-08-25T01:29:25;21.20;68.10
3075;DHT22;1548;51.716;8.748;2022-08-25T01:31:54;21.20;68.20
3075;DHT22;1548;51.716;8.748;2022-08-25T01:34:23;21.20;68.30
3075;DHT22;1548;51.716;8.748;2022-08-25T01:36:49;21.20;68.30
3075;DHT22;1548;51.716;8.748;2022-08-25T01:39:15;21.20;68.30
3075;DHT22;1548;51.716;8.748;2022-08-25T01:42:02;21.20;68.50
3075;DHT22;1548;51.716;8.748;2022-08-25T01:44:31;21.10;68.60
3075;DHT22;1548;51.716;8.748;2022-08-25T01:46:57;21.10;68.70
3075;DHT22;1548;51.716;8.748;2022-08-25T01:49:23;21.00;68.80
3075;DHT22;1548;51.716;8.748;2022-08-25T01:54:32;20.90;69.00
3075;DHT22;1548;51.716;8.748;2022-08-25T01:56:58;20.80;69.10
3075;DHT22;1548;51.716;8.748;2022-08-25T01:59:25;20.80;69.20
3075;DHT22;1548;51.716;8.748;2022-08-25T02:01:51;20.70;69.30
3075;DHT22;1548;51.716;8.748;2022-08-25T02:04:16;20.80;69.30
3075;DHT22;1548;51.716;8.748;2022-08-25T02:06:42;20.70;69.40
3075;DHT22;1548;51.716;8.748;2022-08-25T02:09:11;20.60;69.50
3075;DHT22;1548;51.716;8.748;2022-08-25T02:11:39;20.60;69.40
3075;DHT22;1548;51.716;8.748;2022-08-25T02:14:08;20.60;69.40
3075;DHT22;1548;51.716;8.748;2022-08-25T02:16:35;20.60;69.50
3075;DHT22;1548;51.716;8.748;2022-08-25T02:19:06;20.60;69.50
3075;DHT22;1548;51.716;8.748;2022-08-25T02:21:32;20.50;69.70
3075;DHT22;1548;51.716;8.748;2022-08-25T02:23:58;20.60;69.60
3075;DHT22;1548;51.716;8.748;2022-08-25T02:26:24;20.70;69.50
3075;DHT22;1548;51.716;8.748;2022-08-25T02:28:51;20.60;69.60
3075;DHT22;1548;51.716;8.748;2022-08-25T02:31:19;20.60;69.70
3075;DHT22;1548;51.716;8.748;2022-08-25T02:33:45;20.60;69.60
3075;DHT22;1548;51.716;8.748;2022-08-25T02:36:11;20.70;69.60
3075;DHT22;1548;51.716;8.748;2022-08-25T02:38:37;20.70;69.60
3075;DHT22;1548;51.716;8.748;2022-08-25T02:41:15;20.70;69.60
3075;DHT22;1548;51.716;8.748;2022-08-25T02:43:43;20.60;69.60
3075;DHT22;1548;51.716;8.748;2022-08-25T02:46:10;20.60;69.70
3075;DHT22;1548;51.716;8.748;2022-08-25T02:48:36;20.60;69.70
3075;DHT22;1548;51.716;8.748;2022-08-25T02:51:03;20.60;69.70
3075;DHT22;1548;51.716;8.748;2022-08-25T02:53:32;20.60;69.80
3075;DHT22;1548;51.716;8.748;2022-08-25T02:55:58;20.60;69.90
3075;DHT22;1548;51.716;8.748;2022-08-25T02:58:24;20.60;69.80
3075;DHT22;1548;51.716;8.748;2022-08-25T03:00:50;20.60;69.90
3075;DHT22;1548;51.716;8.748;2022-08-25T03:03:18;20.50;70.10
3075;DHT22;1548;51.716;8.748;2022-08-25T03:05:43;20.40;70.40
3075;DHT22;1548;51.716;8.748;2022-08-25T03:08:10;20.50;70.50
3075;DHT22;1548;51.716;8.748;2022-08-25T03:10:36;20.40;70.50
3075;DHT22;1548;51.716;8.748;2022-08-25T03:13:02;20.40;70.50
3075;DHT22;1548;51.716;8.748;2022-08-25T03:15:29;20.40;70.60
3075;DHT22;1548;51.716;8.748;2022-08-25T03:17:55;20.30;70.60
3075;DHT22;1548;51.716;8.748;2022-08-25T03:20:24;20.30;70.80
3075;DHT22;1548;51.716;8.748;2022-08-25T03:22:52;20.30;70.70
3075;DHT22;1548;51.716;8.748;2022-08-25T03:25:18;20.40;70.70
3075;DHT22;1548;51.716;8.748;2022-08-25T03:28:02;20.30;70.70
3075;DHT22;1548;51.716;8.748;2022-08-25T03:30:29;20.30;70.70
3075;DHT22;1548;51.716;8.748;2022-08-25T03:32:55;20.30;70.80
3075;DHT22;1548;51.716;8.748;2022-08-25T03:35:21;20.30;70.80
3075;DHT22;1548;51.716;8.748;2022-08-25T03:37:46;20.30;70.70
3075;DHT22;1548;51.716;8.748;2022-08-25T03:40:14;20.30;70.90
3075;DHT22;1548;51.716;8.748;2022-08-25T03:42:44;20.20;70.90
3075;DHT22;1548;51.716;8.748;2022-08-25T03:45:11;20.20;70.90
3075;DHT22;1548;51.716;8.748;2022-08-25T03:47:39;20.20;70.90
3075;DHT22;1548;51.716;8.748;2022-08-25T03:50:10;20.20;70.90
3075;DHT22;1548;51.716;8.748;2022-08-25T03:52:36;20.20;71.00
3075;DHT22;1548;51.716;8.748;2022-08-25T03:55:04;20.10;71.00
3075;DHT22;1548;51.716;8.748;2022-08-25T03:57:30;20.00;71.20
3075;DHT22;1548;51.716;8.748;2022-08-25T03:59:55;20.10;71.20
3075;DHT22;1548;51.716;8.748;2022-08-25T04:02:21;20.00;71.20
3075;DHT22;1548;51.716;8.748;2022-08-25T04:04:47;20.10;71.20
3075;DHT22;1548;51.716;8.748;2022-08-25T04:07:12;20.00;71.30
3075;DHT22;1548;51.716;8.748;2022-08-25T04:09:38;20.00;71.30
3075;DHT22;1548;51.716;8.748;2022-08-25T04:12:04;20.00;71.30
3075;DHT22;1548;51.716;8.748;2022-08-25T04:14:29;20.00;71.30
3075;DHT22;1548;51.716;8.748;2022-08-25T04:16:55;19.90;71.40
3075;DHT22;1548;51.716;8.748;2022-08-25T04:19:21;19.80;71.50
3075;DHT22;1548;51.716;8.748;2022-08-25T04:21:47;19.70;71.70
3075;DHT22;1548;51.716;8.748;2022-08-25T04:24:14;19.80;71.90
3075;DHT22;1548;51.716;8.748;2022-08-25T04:26:43;19.80;71.70
3075;DHT22;1548;51.716;8.748;2022-08-25T04:29:10;19.80;71.80
3075;DHT22;1548;51.716;8.748;2022-08-25T04:31:39;19.80;72.00
3075;DHT22;1548;51.716;8.748;2022-08-25T04:34:05;19.80;72.10
3075;DHT22;1548;51.716;8.748;2022-08-25T04:36:31;19.70;72.20
3075;DHT22;1548;51.716;8.748;2022-08-25T04:38:57;19.70;72.30
3075;DHT22;1548;51.716;8.748;2022-08-25T04:41:24;19.70;72.30
3075;DHT22;1548;51.716;8.748;2022-08-25T04:43:50;19.70;72.40
3075;DHT22;1548;51.716;8.748;2022-08-25T04:46:22;19.70;72.40
3075;DHT22;1548;51.716;8.748;2022-08-25T04:48:49;19.80;72.50
3075;DHT22;1548;51.716;8.748;2022-08-25T04:51:19;19.80;72.50
3075;DHT22;1548;51.716;8.748;2022-08-25T04:53:45;19.80;72.50
3075;DHT22;1548;51.716;8.748;2022-08-25T04:56:13;19.80;72.60
3075;DHT22;1548;51.716;8.748;2022-08-25T04:58:40;19.80;72.60
3075;DHT22;1548;51.716;8.748;2022-08-25T05:01:09;19.80;72.70
3075;DHT22;1548;51.716;8.748;2022-08-25T05:03:35;19.80;72.70
3075;DHT22;1548;51.716;8.748;2022-08-25T05:06:03;19.90;72.60
3075;DHT22;1548;51.716;8.748;2022-08-25T05:08:29;19.90;72.60
3075;DHT22;1548;51.716;8.748;2022-08-25T05:10:55;20.00;72.50
3075;DHT22;1548;51.716;8.748;2022-08-25T05:13:22;20.10;72.50
3075;DHT22;1548;51.716;8.748;2022-08-25T05:15:56;20.10;72.40
3075;DHT22;1548;51.716;8.748;2022-08-25T05:18:23;20.10;72.40
3075;DHT22;1548;51.716;8.748;2022-08-25T05:20:51;20.20;72.40
3075;DHT22;1548;51.716;8.748;2022-08-25T05:23:21;20.20;72.30
3075;DHT22;1548;51.716;8.748;2022-08-25T05:25:48;20.30;72.30
3075;DHT22;1548;51.716;8.748;2022-08-25T05:28:14;20.30;72.20
3075;DHT22;1548;51.716;8.748;2022-08-25T05:30:41;20.30;72.30
3075;DHT22;1548;51.716;8.748;2022-08-25T05:33:07;20.30;72.40
3075;DHT22;1548;51.716;8.748;2022-08-25T05:35:33;20.30;72.30
3075;DHT22;1548;51.716;8.748;2022-08-25T05:38:00;20.40;72.20
3075;DHT22;1548;51.716;8.748;2022-08-25T05:40:26;20.50;72.10
3075;DHT22;1548;51.716;8.748;2022-08-25T05:42:52;20.70;71.90
3075;DHT22;1548;51.716;8.748;2022-08-25T05:45:18;20.80;71.80
3075;DHT22;1548;51.716;8.748;2022-08-25T05:47:44;20.90;71.80
3075;DHT22;1548;51.716;8.748;2022-08-25T05:50:10;21.00;71.70
3075;DHT22;1548;51.716;8.748;2022-08-25T05:52:36;21.10;71.50
3075;DHT22;1548;51.716;8.748;2022-08-25T05:55:03;21.20;71.50
3075;DHT22;1548;51.716;8.748;2022-08-25T05:57:29;21.30;71.30
3075;DHT22;1548;51.716;8.748;2022-08-25T05:59:54;21.40;71.10
3075;DHT22;1548;51.716;8.748;2022-08-25T06:02:20;21.50;71.10
3075;DHT22;1548;51.716;8.748;2022-08-25T06:05:04;21.60;71.00
3075;DHT22;1548;51.716;8.748;2022-08-25T06:07:30;21.60;71.00
3075;DHT22;1548;51.716;8.748;2022-08-25T06:09:55;21.60;70.90
3075;DHT22;1548;51.716;8.748;2022-08-25T06:12:21;21.70;70.90
3075;DHT22;1548;51.716;8.748;2022-08-25T06:14:47;21.70;70.90
3075;DHT22;1548;51.716;8.748;2022-08-25T06:17:14;21.80;70.90
3075;DHT22;1548;51.716;8.748;2022-08-25T06:19:39;21.80;70.80
3075;DHT22;1548;51.716;8.748;2022-08-25T06:22:05;21.90;70.70
3075;DHT22;1548;51.716;8.748;2022-08-25T06:24:31;22.00;70.70
3075;DHT22;1548;51.716;8.748;2022-08-25T06:26:57;22.00;70.60
3075;DHT22;1548;51.716;8.748;2022-08-25T06:29:23;22.10;70.50
3075;DHT22;1548;51.716;8.748;2022-08-25T06:31:49;22.10;70.50
3075;DHT22;1548;51.716;8.748;2022-08-25T06:34:15;22.20;70.40
3075;DHT22;1548;51.716;8.748;2022-08-25T06:36:41;22.20;70.40
3075;DHT22;1548;51.716;8.748;2022-08-25T06:39:07;22.40;70.30
3075;DHT22;1548;51.716;8.748;2022-08-25T06:41:33;22.50;70.10
3075;DHT22;1548;51.716;8.748;2022-08-25T06:43:58;22.50;70.10
3075;DHT22;1548;51.716;8.748;2022-08-25T06:46:25;22.60;70.10
3075;DHT22;1548;51.716;8.748;2022-08-25T06:48:55;22.70;70.00
3075;DHT22;1548;51.716;8.748;2022-08-25T06:51:21;22.80;69.90
3075;DHT22;1548;51.716;8.748;2022-08-25T06:53:48;22.90;69.80
3075;DHT22;1548;51.716;8.748;2022-08-25T06:56:16;23.00;69.70
3075;DHT22;1548;51.716;8.748;2022-08-25T06:58:42;23.10;69.70
3075;DHT22;1548;51.716;8.748;2022-08-25T07:01:16;23.20;69.60
3075;DHT22;1548;51.716;8.748;2022-08-25T07:03:44;23.20;69.70
3075;DHT22;1548;51.716;8.748;2022-08-25T07:06:10;23.30;69.70
3075;DHT22;1548;51.716;8.748;2022-08-25T07:08:35;23.40;69.50
3075;DHT22;1548;51.716;8.748;2022-08-25T07:11:05;23.50;69.30
3075;DHT22;1548;51.716;8.748;2022-08-25T07:13:31;23.40;69.70
3075;DHT22;1548;51.716;8.748;2022-08-25T07:15:56;23.50;69.50
3075;DHT22;1548;51.716;8.748;2022-08-25T07:18:22;23.60;69.50
3075;DHT22;1548;51.716;8.748;2022-08-25T07:20:48;23.60;69.50
3075;DHT22;1548;51.716;8.748;2022-08-25T07:23:16;23.60;69.50
3075;DHT22;1548;51.716;8.748;2022-08-25T07:25:42;23.80;69.40
3075;DHT22;1548;51.716;8.748;2022-08-25T07:28:08;23.80;69.40
3075;DHT22;1548;51.716;8.748;2022-08-25T07:30:34;23.90;69.40
3075;DHT22;1548;51.716;8.748;2022-08-25T07:32:59;23.90;69.40
3075;DHT22;1548;51.716;8.748;2022-08-25T07:35:25;24.00;69.40
3075;DHT22;1548;51.716;8.748;2022-08-25T07:37:54;24.10;69.30
3075;DHT22;1548;51.716;8.748;2022-08-25T07:40:28;24.10;69.10
3075;DHT22;1548;51.716;8.748;2022-08-25T07:42:55;24.10;69.30
3075;DHT22;1548;51.716;8.748;2022-08-25T07:45:24;24.20;69.20
3075;DHT22;1548;51.716;8.748;2022-08-25T07:48:00;24.40;69.20
3075;DHT22;1548;51.716;8.748;2022-08-25T07:50:27;24.40;69.00
3075;DHT22;1548;51.716;8.748;2022-08-25T07:52:55;24.40;69.00
3075;DHT22;1548;51.716;8.748;2022-08-25T07:55:25;24.50;69.00
3075;DHT22;1548;51.716;8.748;2022-08-25T07:57:52;24.70;68.80
3075;DHT22;1548;51.716;8.748;2022-08-25T08:00:18;24.70;68.80
3075;DHT22;1548;51.716;8.748;2022-08-25T08:02:45;24.80;68.80
3075;DHT22;1548;51.716;8.748;2022-08-25T08:05:11;24.80;68.60
3075;DHT22;1548;51.716;8.748;2022-08-25T08:07:37;24.80;68.80
3075;DHT22;1548;51.716;8.748;2022-08-25T08:10:04;25.00;68.40
3075;DHT22;1548;51.716;8.748;2022-08-25T08:12:30;24.90;68.50
3075;DHT22;1548;51.716;8.748;2022-08-25T08:14:57;25.00;68.50
3075;DHT22;1548;51.716;8.748;2022-08-25T08:17:23;25.20;68.10
3075;DHT22;1548;51.716;8.748;2022-08-25T08:19:49;25.30;67.80
3075;DHT22;1548;51.716;8.748;2022-08-25T08:22:14;25.30;67.80
3075;DHT22;1548;51.716;8.748;2022-08-25T08:24:42;25.20;68.00
3075;DHT22;1548;51.716;8.748;2022-08-25T08:27:09;25.20;68.10
3075;DHT22;1548;51.716;8.748;2022-08-25T08:29:36;25.30;67.80
3075;DHT22;1548;51.716;8.748;2022-08-25T08:32:04;25.20;68.10
3075;DHT22;1548;51.716;8.748;2022-08-25T08:34:31;25.10;68.10
3075;DHT22;1548;51.716;8.748;2022-08-25T08:36:57;25.20;68.20
3075;DHT22;1548;51.716;8.748;2022-08-25T08:39:24;25.30;68.00
3075;DHT22;1548;51.716;8.748;2022-08-25T08:42:01;25.40;67.80
3075;DHT22;1548;51.716;8.748;2022-08-25T08:55:15;25.70;67.70
3075;DHT22;1548;51.716;8.748;2022-08-25T08:57:45;25.90;67.10
3075;DHT22;1548;51.716;8.748;2022-08-25T09:00:12;26.00;66.90
3075;DHT22;1548;51.716;8.748;2022-08-25T09:02:56;26.10;66.50
3075;DHT22;1548;51.716;8.748;2022-08-25T09:05:26;26.10;66.50
3075;DHT22;1548;51.716;8.748;2022-08-25T09:08:05;26.30;66.00
3075;DHT22;1548;51.716;8.748;2022-08-25T09:10:44;26.30;66.40
3075;DHT22;1548;51.716;8.748;2022-08-25T09:13:26;26.30;66.10
3075;DHT22;1548;51.716;8.748;2022-08-25T09:16:06;26.40;66.00
3075;DHT22;1548;51.716;8.748;2022-08-25T09:21:42;26.80;65.30
3075;DHT22;1548;51.716;8.748;2022-08-25T09:24:27;26.60;65.50
3075;DHT22;1548;51.716;8.748;2022-08-25T09:27:55;26.40;65.80
3075;DHT22;1548;51.716;8.748;2022-08-25T09:30:06;26.60;65.30
3075;DHT22;1548;51.716;8.748;2022-08-25T09:32:38;26.80;65.00
3075;DHT22;1548;51.716;8.748;2022-08-25T09:35:05;26.70;65.10
3075;DHT22;1548;51.716;8.748;2022-08-25T09:37:32;26.70;64.70
3075;DHT22;1548;51.716;8.748;2022-08-25T09:39:57;26.50;64.80
3075;DHT22;1548;51.716;8.748;2022-08-25T09:42:47;26.50;64.80
3075;DHT22;1548;51.716;8.748;2022-08-25T09:45:13;26.70;64.10
3075;DHT22;1548;51.716;8.748;2022-08-25T09:47:43;26.70;63.60
3075;DHT22;1548;51.716;8.748;2022-08-25T09:50:14;26.80;63.00
3075;DHT22;1548;51.716;8.748;2022-08-25T09:52:41;26.80;63.40
3075;DHT22;1548;51.716;8.748;2022-08-25T09:57:51;26.90;63.00
3075;DHT22;1548;51.716;8.748;2022-08-25T10:03:07;27.00;63.00
3075;DHT22;1548;51.716;8.748;2022-08-25T10:05:58;27.10;62.80
3075;DHT22;1548;51.716;8.748;2022-08-25T10:11:00;27.40;62.20
3075;DHT22;1548;51.716;8.748;2022-08-25T10:13:42;27.60;61.80
3075;DHT22;1548;51.716;8.748;2022-08-25T10:16:30;27.80;61.50
3075;DHT22;1548;51.716;8.748;2022-08-25T10:19:03;27.90;61.30
3075;DHT22;1548;51.716;8.748;2022-08-25T10:21:31;27.80;61.00
3075;DHT22;1548;51.716;8.748;2022-08-25T10:23:58;27.50;62.00
3075;DHT22;1548;51.716;8.748;2022-08-25T10:32:04;27.30;62.40
3075;DHT22;1548;51.716;8.748;2022-08-25T10:37:17;27.70;61.10
3075;DHT22;1548;51.716;8.748;2022-08-25T10:40:06;27.60;60.30
3075;DHT22;1548;51.716;8.748;2022-08-25T10:45:28;27.60;60.80
3075;DHT22;1548;51.716;8.748;2022-08-25T10:56:40;27.90;60.90
3075;DHT22;1548;51.716;8.748;2022-08-25T11:04:23;28.30;60.00
3075;DHT22;1548;51.716;8.748;2022-08-25T11:06:59;28.50;59.60
3075;DHT22;1548;51.716;8.748;2022-08-25T11:09:33;28.30;59.00
3075;DHT22;1548;51.716;8.748;2022-08-25T11:12:04;28.20;59.40
3075;DHT22;1548;51.716;8.748;2022-08-25T11:14:35;28.20;59.50
3075;DHT22;1548;51.716;8.748;2022-08-25T11:17:13;28.30;59.60
3075;DHT22;1548;51.716;8.748;2022-08-25T11:19:43;28.40;58.50
3075;DHT22;1548;51.716;8.748;2022-08-25T11:22:24;28.40;58.60
3075;DHT22;1548;51.716;8.748;2022-08-25T11:25:17;28.40;58.80
3075;DHT22;1548;51.716;8.748;2022-08-25T11:28:26;28.40;58.20
3075;DHT22;1548;51.716;8.748;2022-08-25T11:30:55;28.20;58.90
3075;DHT22;1548;51.716;8.748;2022-08-25T11:33:23;28.50;56.80
3075;DHT22;1548;51.716;8.748;2022-08-25T11:35:53;28.50;56.90
3075;DHT22;1548;51.716;8.748;2022-08-25T11:41:04;28.80;56.50
3075;DHT22;1548;51.716;8.748;2022-08-25T11:51:52;28.70;56.70
3075;DHT22;1548;51.716;8.748;2022-08-25T11:54:35;28.80;56.70
3075;DHT22;1548;51.716;8.748;2022-08-25T11:57:08;28.90;56.70
3075;DHT22;1548;51.716;8.748;2022-08-25T12:02:41;28.90;56.30
3075;DHT22;1548;51.716;8.748;2022-08-25T12:08:01;29.00;56.30
3075;DHT22;1548;51.716;8.748;2022-08-25T12:13:37;29.10;56.20
3075;DHT22;1548;51.716;8.748;2022-08-25T12:16:04;29.30;55.60
3075;DHT22;1548;51.716;8.748;2022-08-25T12:23:41;29.50;55.20
3075;DHT22;1548;51.716;8.748;2022-08-25T12:26:34;29.30;55.80
3075;DHT22;1548;51.716;8.748;2022-08-25T12:29:08;29.40;55.40
3075;DHT22;1548;51.716;8.748;2022-08-25T12:34:32;29.60;54.90
3075;DHT22;1548;51.716;8.748;2022-08-25T12:39:43;29.80;53.80
3075;DHT22;1548;51.716;8.748;2022-08-25T12:42:41;29.90;54.30
3075;DHT22;1548;51.716;8.748;2022-08-25T12:45:13;30.20;53.50
3075;DHT22;1548;51.716;8.748;2022-08-25T12:47:41;30.30;53.50
3075;DHT22;1548;51.716;8.748;2022-08-25T12:50:45;30.20;53.10
3075;DHT22;1548;51.716;8.748;2022-08-25T12:53:31;30.30;53.20
3075;DHT22;1548;51.716;8.748;2022-08-25T12:59:21;29.80;53.80
3075;DHT22;1548;51.716;8.748;2022-08-25T13:02:52;29.30;54.90
3075;DHT22;1548;51.716;8.748;2022-08-25T13:08:03;29.80;54.10
3075;DHT22;1548;51.716;8.748;2022-08-25T13:10:51;30.30;53.40
3075;DHT22;1548;51.716;8.748;2022-08-25T13:13:30;30.70;52.30
3075;DHT22;1548;51.716;8.748;2022-08-25T13:16:02;31.00;51.10
3075;DHT22;1548;51.716;8.748;2022-08-25T13:18:32;30.40;51.30
3075;DHT22;1548;51.716;8.748;2022-08-25T13:23:35;30.60;52.00
3075;DHT22;1548;51.716;8.748;2022-08-25T13:26:02;30.40;52.40
3075;DHT22;1548;51.716;8.748;2022-08-25T13:28:31;30.30;52.40
3075;DHT22;1548;51.716;8.748;2022-08-25T13:33:34;30.60;52.30
3075;DHT22;1548;51.716;8.748;2022-08-25T13:36:01;30.80;52.20
3075;DHT22;1548;51.716;8.748;2022-08-25T13:38:47;31.10;51.70
3075;DHT22;1548;51.716;8.748;2022-08-25T13:41:22;31.10;51.60
3075;DHT22;1548;51.716;8.748;2022-08-25T13:43:49;31.00;51.40
3075;DHT22;1548;51.716;8.748;2022-08-25T13:46:21;30.60;52.20
3075;DHT22;1548;51.716;8.748;2022-08-25T13:48:48;30.30;52.70
3075;DHT22;1548;51.716;8.748;2022-08-25T13:51:22;30.00;53.50
3075;DHT22;1548;51.716;8.748;2022-08-25T13:53:54;29.80;53.10
3075;DHT22;1548;51.716;8.748;2022-08-25T13:56:40;29.90;53.20
3075;DHT22;1548;51.716;8.748;2022-08-25T13:59:22;30.10;53.00
3075;DHT22;1548;51.716;8.748;2022-08-25T14:01:50;30.20;53.10
3075;DHT22;1548;51.716;8.748;2022-08-25T14:04:22;30.20;52.90
3075;DHT22;1548;51.716;8.748;2022-08-25T14:12:40;30.40;52.40
3075;DHT22;1548;51.716;8.748;2022-08-25T14:17:44;31.00;51.50
3075;DHT22;1548;51.716;8.748;2022-08-25T14:22:44;31.10;50.70
3075;DHT22;1548;51.716;8.748;2022-08-25T14:25:10;31.30;50.30
3075;DHT22;1548;51.716;8.748;2022-08-25T14:27:39;31.50;49.60
3075;DHT22;1548;51.716;8.748;2022-08-25T14:30:06;31.70;49.40
3075;DHT22;1548;51.716;8.748;2022-08-25T14:32:31;31.90;48.80
3075;DHT22;1548;51.716;8.748;2022-08-25T14:34:57;31.90;48.40
3075;DHT22;1548;51.716;8.748;2022-08-25T14:37:22;31.80;48.60
3075;DHT22;1548;51.716;8.748;2022-08-25T14:39:49;31.30;49.80
3075;DHT22;1548;51.716;8.748;2022-08-25T14:42:16;31.20;50.50
3075;DHT22;1548;51.716;8.748;2022-08-25T14:44:42;31.10;50.60
3075;DHT22;1548;51.716;8.748;2022-08-25T14:47:08;31.30;50.00
3075;DHT22;1548;51.716;8.748;2022-08-25T14:49:36;31.30;49.40
3075;DHT22;1548;51.716;8.748;2022-08-25T14:52:19;31.20;49.30
3075;DHT22;1548;51.716;8.748;2022-08-25T14:54:45;31.30;49.40
3075;DHT22;1548;51.716;8.748;2022-08-25T14:57:11;31.30;49.30
3075;DHT22;1548;51.716;8.748;2022-08-25T14:59:37;31.40;49.20
3075;DHT22;1548;51.716;8.748;2022-08-25T15:02:05;31.60;49.10
3075;DHT22;1548;51.716;8.748;2022-08-25T15:04:34;31.90;48.50
3075;DHT22;1548;51.716;8.748;2022-08-25T15:07:01;32.10;48.30
3075;DHT22;1548;51.716;8.748;2022-08-25T15:09:46;32.00;48.30
3075;DHT22;1548;51.716;8.748;2022-08-25T15:12:12;31.90;48.30
3075;DHT22;1548;51.716;8.748;2022-08-25T15:14:39;31.60;48.80
3075;DHT22;1548;51.716;8.748;2022-08-25T15:17:06;31.20;49.40
3075;DHT22;1548;51.716;8.748;2022-08-25T15:19:33;30.70;50.20
3075;DHT22;1548;51.716;8.748;2022-08-25T15:21:59;31.00;50.00
3075;DHT22;1548;51.716;8.748;2022-08-25T15:24:26;31.00;49.90
3075;DHT22;1548;51.716;8.748;2022-08-25T15:26:54;31.00;49.90
3075;DHT22;1548;51.716;8.748;2022-08-25T15:29:22;30.70;50.40
3075;DHT22;1548;51.716;8.748;2022-08-25T15:31:48;30.70;50.60
3075;DHT22;1548;51.716;8.748;2022-08-25T15:34:14;30.90;50.40
3075;DHT22;1548;51.716;8.748;2022-08-25T15:36:40;31.10;50.00
3075;DHT22;1548;51.716;8.748;2022-08-25T15:39:06;31.20;49.70
3075;DHT22;1548;51.716;8.748;2022-08-25T15:41:32;31.10;50.00
3075;DHT22;1548;51.716;8.748;2022-08-25T15:43:58;31.40;49.60
3075;DHT22;1548;51.716;8.748;2022-08-25T15:46:26;31.80;48.90
3075;DHT22;1548;51.716;8.748;2022-08-25T15:48:55;32.00;48.80
3075;DHT22;1548;51.716;8.748;2022-08-25T15:51:21;32.20;48.30
3075;DHT22;1548;51.716;8.748;2022-08-25T15:53:47;32.20;48.20
3075;DHT22;1548;51.716;8.748;2022-08-25T15:56:13;32.20;48.20
3075;DHT22;1548;51.716;8.748;2022-08-25T15:58:42;32.60;47.90
3075;DHT22;1548;51.716;8.748;2022-08-25T16:01:17;32.80;47.60
3075;DHT22;1548;51.716;8.748;2022-08-25T16:03:43;32.30;48.00
3075;DHT22;1548;51.716;8.748;2022-08-25T16:06:09;31.90;48.70
3075;DHT22;1548;51.716;8.748;2022-08-25T16:08:35;32.10;48.10
3075;DHT22;1548;51.716;8.748;2022-08-25T16:11:02;32.10;47.80
3075;DHT22;1548;51.716;8.748;2022-08-25T16:13:27;32.10;48.20
3075;DHT22;1548;51.716;8.748;2022-08-25T16:15:53;32.50;47.70
3075;DHT22;1548;51.716;8.748;2022-08-25T16:18:20;32.80;47.30
3075;DHT22;1548;51.716;8.748;2022-08-25T16:20:46;33.10;47.10
3075;DHT22;1548;51.716;8.748;2022-08-25T16:23:13;33.00;47.10
3075;DHT22;1548;51.716;8.748;2022-08-25T16:25:42;33.00;47.00
3075;DHT22;1548;51.716;8.748;2022-08-25T16:28:09;33.20;46.80
3075;DHT22;1548;51.716;8.748;2022-08-25T16:30:36;32.70;46.70
3075;DHT22;1548;51.716;8.748;2022-08-25T16:33:04;32.50;47.00
3075;DHT22;1548;51.716;8.748;2022-08-25T16:35:31;32.50;46.90
3075;DHT22;1548;51.716;8.748;2022-08-25T16:37:57;32.70;46.60
3075;DHT22;1548;51.716;8.748;2022-08-25T16:40:23;33.00;46.20
3075;DHT22;1548;51.716;8.748;2022-08-25T16:42:51;33.00;46.60
3075;DHT22;1548;51.716;8.748;2022-08-25T16:45:17;32.60;47.10
3075;DHT22;1548;51.716;8.748;2022-08-25T16:47:43;32.30;47.70
3075;DHT22;1548;51.716;8.748;2022-08-25T16:50:09;32.50;47.50
3075;DHT22;1548;51.716;8.748;2022-08-25T16:52:35;32.60;47.30
3075;DHT22;1548;51.716;8.748;2022-08-25T16:55:20;32.50;47.30
3075;DHT22;1548;51.716;8.748;2022-08-25T16:57:51;32.60;47.10
3075;DHT22;1548;51.716;8.748;2022-08-25T17:00:23;32.70;46.90
3075;DHT22;1548;51.716;8.748;2022-08-25T17:02:53;32.90;46.70
3075;DHT22;1548;51.716;8.748;2022-08-25T17:05:19;32.70;47.00
3075;DHT22;1548;51.716;8.748;2022-08-25T17:07:45;32.60;47.10
3075;DHT22;1548;51.716;8.748;2022-08-25T17:10:34;32.70;47.00
3075;DHT22;1548;51.716;8.748;2022-08-25T17:13:01;32.60;46.80
3075;DHT22;1548;51.716;8.748;2022-08-25T17:15:27;32.70;46.40
3075;DHT22;1548;51.716;8.748;2022-08-25T17:17:52;32.70;46.30
3075;DHT22;1548;51.716;8.748;2022-08-25T17:20:18;32.80;46.10
3075;DHT22;1548;51.716;8.748;2022-08-25T17:22:43;32.70;46.20
3075;DHT22;1548;51.716;8.748;2022-08-25T17:25:09;32.80;46.30
3075;DHT22;1548;51.716;8.748;2022-08-25T17:27:35;32.60;46.50
3075;DHT22;1548;51.716;8.748;2022-08-25T17:30:00;32.50;46.80
3075;DHT22;1548;51.716;8.748;2022-08-25T17:32:26;32.40;47.20
3075;DHT22;1548;51.716;8.748;2022-08-25T17:34:52;32.50;46.90
3075;DHT22;1548;51.716;8.748;2022-08-25T17:37:17;32.60;46.90
3075;DHT22;1548;51.716;8.748;2022-08-25T17:42:26;32.60;47.10
3075;DHT22;1548;51.716;8.748;2022-08-25T17:44:52;32.40;47.40
3075;DHT22;1548;51.716;8.748;2022-08-25T17:47:18;31.90;48.20
3075;DHT22;1548;51.716;8.748;2022-08-25T17:49:43;31.50;49.10
3075;DHT22;1548;51.716;8.748;2022-08-25T17:52:09;31.20;49.60
3075;DHT22;1548;51.716;8.748;2022-08-25T17:54:34;31.10;49.80
3075;DHT22;1548;51.716;8.748;2022-08-25T17:57:00;31.10;49.90
3075;DHT22;1548;51.716;8.748;2022-08-25T17:59:27;31.00;49.90
3075;DHT22;1548;51.716;8.748;2022-08-25T18:01:53;30.90;50.20